Time;durP1;ratioP1;P1;durP2;ratioP2;P2;SDS_P1;SDS_P2;PMS_P1;PMS_P2;Temp;Humidity;BMP_temperature;BMP_pressure;BME280_temperature;BME280_humidity;BME280_pressure;Samples;Min_cycle;Max_cycle;Signal;HPM_P1;HPM_P2
2023/05/02 18:21:24;;;;;;;4.10;1.03;;;15.70;52.20;;;;;;5043095;27;1929947;-63
2023/05/02 18:23:50;;;;;;;3.72;1.40;;;14.80;55.40;;;;;;5066611;28;20039;-63
2023/05/02 18:26:16;;;;;;;2.63;1.23;;;14.30;56.80;;;;;;5049673;28;20021;-64
2023/05/02 18:28:43;;;;;;;4.18;1.58;;;13.90;58.10;;;;;;5068985;28;20024;-63
2023/05/02 18:31:19;;;;;;;2.67;1.20;;;13.80;58.90;;;;;;5068293;28;20020;-64
2023/05/02 18:33:45;;;;;;;4.40;1.60;;;13.60;59.10;;;;;;5079520;28;20017;-63
2023/05/02 18:36:12;;;;;;;5.03;1.50;;;13.40;59.70;;;;;;5071489;28;20418;-63
2023/05/02 18:38:39;;;;;;;3.58;1.73;;;13.20;60.10;;;;;;5088285;28;20024;-65
2023/05/02 18:41:05;;;;;;;6.05;2.20;;;13.00;60.70;;;;;;5089697;28;20036;-64
2023/05/02 18:43:32;;;;;;;3.60;1.48;;;12.90;61.30;;;;;;5088548;28;20023;-63
2023/05/02 18:45:58;;;;;;;5.95;1.30;;;12.70;61.50;;;;;;5089628;28;20050;-64
2023/05/02 18:48:23;;;;;;;4.15;1.20;;;12.50;62.40;;;;;;5070714;28;20081;-63
2023/05/02 18:50:50;;;;;;;5.13;2.38;;;12.40;62.90;;;;;;5088443;28;20024;-63
2023/05/02 18:53:15;;;;;;;8.45;3.42;;;12.30;63.10;;;;;;5089078;28;20107;-66
2023/05/02 18:55:41;;;;;;;7.85;3.08;;;12.20;63.30;;;;;;5067846;28;20103;-63
2023/05/02 18:58:06;;;;;;;8.32;2.83;;;12.10;63.80;;;;;;5085039;28;20024;-63
2023/05/02 19:00:32;;;;;;;6.65;3.20;;;12.10;64.10;;;;;;5088169;28;20032;-63
2023/05/02 19:02:58;;;;;;;4.25;2.70;;;12.00;64.30;;;;;;5088314;28;20472;-64
2023/05/02 19:05:23;;;;;;;2.67;1.60;;;11.90;64.60;;;;;;5087828;28;20540;-63
2023/05/02 19:07:49;;;;;;;5.70;1.60;;;11.90;64.70;;;;;;5088434;28;20020;-64
2023/05/02 19:10:15;;;;;;;5.95;1.75;;;11.70;65.00;;;;;;5088273;28;20115;-63
2023/05/02 19:12:40;;;;;;;3.97;1.15;;;11.60;65.50;;;;;;5068967;28;20054;-63
2023/05/02 19:15:06;;;;;;;3.45;1.23;;;11.50;65.70;;;;;;5070092;28;20028;-63
2023/05/02 19:17:32;;;;;;;3.17;1.17;;;11.50;65.90;;;;;;5087947;28;20099;-64
2023/05/02 19:19:58;;;;;;;4.22;1.52;;;11.40;66.20;;;;;;5069259;28;20445;-63
2023/05/02 19:22:26;;;;;;;8.68;1.40;;;11.30;66.30;;;;;;5087977;28;20031;-63
2023/05/02 19:24:51;;;;;;;3.00;1.38;;;11.20;66.30;;;;;;5088188;28;20048;-63
2023/05/02 19:27:17;;;;;;;3.20;1.25;;;11.10;66.40;;;;;;5069146;28;20047;-63
2023/05/02 19:29:43;;;;;;;3.97;1.45;;;11.00;66.90;;;;;;5088282;28;20032;-63
2023/05/02 19:32:08;;;;;;;2.60;1.42;;;10.90;67.40;;;;;;5078298;28;20159;-64
2023/05/02 19:34:35;;;;;;;6.47;1.60;;;10.90;67.60;;;;;;5073915;28;20523;-64
2023/05/02 19:37:01;;;;;;;2.60;1.30;;;10.80;67.90;;;;;;5056377;28;20025;-64
2023/05/02 19:39:27;;;;;;;3.72;1.67;;;10.80;68.70;;;;;;5073998;28;20036;-63
2023/05/02 19:41:53;;;;;;;2.97;1.33;;;10.70;69.80;;;;;;5074093;28;20027;-64
2023/05/02 19:44:20;;;;;;;2.30;1.35;;;10.60;70.70;;;;;;5074152;28;20021;-64
2023/05/02 19:46:45;;;;;;;2.70;1.80;;;10.50;71.50;;;;;;5074063;28;20028;-63
2023/05/02 19:49:11;;;;;;;3.05;1.48;;;10.40;72.20;;;;;;5074230;28;20040;-63
2023/05/02 19:51:37;;;;;;;5.50;3.10;;;10.40;72.70;;;;;;5073827;28;20031;-63
2023/05/02 19:54:02;;;;;;;3.40;1.70;;;10.40;72.50;;;;;;5073686;28;20530;-63
2023/05/02 19:56:28;;;;;;;2.35;1.30;;;10.40;72.10;;;;;;5073793;28;20035;-63
2023/05/02 19:58:58;;;;;;;2.45;1.60;;;10.40;71.80;;;;;;5074050;28;20378;-64
2023/05/02 20:01:25;;;;;;;2.85;1.50;;;10.30;71.80;;;;;;5073377;28;20111;-63
2023/05/02 20:03:50;;;;;;;2.80;1.35;;;10.20;72.10;;;;;;5074287;28;20015;-64
2023/05/02 20:06:16;;;;;;;2.05;1.30;;;10.20;72.60;;;;;;5056253;28;20016;-63
2023/05/02 20:08:42;;;;;;;3.17;1.60;;;10.10;72.90;;;;;;5073425;28;20024;-62
2023/05/02 20:11:07;;;;;;;2.38;1.17;;;10.00;73.40;;;;;;5073827;28;20032;-61
2023/05/02 20:13:33;;;;;;;2.67;1.80;;;9.90;74.00;;;;;;5073697;28;20491;-63
2023/05/02 20:15:58;;;;;;;2.42;1.52;;;9.80;74.70;;;;;;5073387;28;20388;-63
2023/05/02 20:18:24;;;;;;;3.72;1.73;;;9.80;75.40;;;;;;5073406;28;20028;-62
2023/05/02 20:20:49;;;;;;;5.47;1.75;;;9.80;75.90;;;;;;5055880;28;20041;-63
2023/05/02 20:23:15;;;;;;;5.75;1.58;;;9.80;76.60;;;;;;5072773;28;20032;-63
2023/05/02 20:25:41;;;;;;;6.22;1.65;;;9.70;77.00;;;;;;5073542;28;20028;-63
2023/05/02 20:28:06;;;;;;;3.60;1.63;;;9.60;77.50;;;;;;5073421;28;20023;-62
2023/05/02 20:30:32;;;;;;;3.58;1.60;;;9.60;78.10;;;;;;5073013;28;20029;-62
2023/05/02 20:32:58;;;;;;;5.38;1.67;;;9.50;78.60;;;;;;5073987;28;20027;-62
2023/05/02 20:35:24;;;;;;;3.50;2.42;;;9.50;79.10;;;;;;5073410;28;20028;-63
2023/05/02 20:37:50;;;;;;;3.90;1.80;;;9.50;79.50;;;;;;5073204;28;20020;-63
2023/05/02 20:40:17;;;;;;;3.28;1.70;;;9.40;80.00;;;;;;5073171;28;20043;-63
2023/05/02 20:42:43;;;;;;;2.35;1.60;;;9.40;80.40;;;;;;5072853;28;20012;-63
2023/05/02 20:45:12;;;;;;;3.90;1.85;;;9.30;80.90;;;;;;5072793;28;20551;-62
2023/05/02 20:47:38;;;;;;;2.78;1.73;;;9.30;81.70;;;;;;5072855;28;20039;-62
